createdAt,value
2017-05-15T00:00:06.260Z,14.50
2017-05-15T00:02:33.988Z,14.50
2017-05-15T00:05:01.719Z,14.60
2017-05-15T00:07:30.332Z,14.60
2017-05-15T00:09:58.056Z,14.50
2017-05-15T00:12:25.775Z,14.40
2017-05-15T00:14:54.715Z,14.40
2017-05-15T00:17:22.442Z,14.30
2017-05-15T00:19:50.173Z,14.20
2017-05-15T00:22:17.940Z,14.10
2017-05-15T00:24:45.672Z,13.90
2017-05-15T00:27:14.140Z,13.80
2017-05-15T00:29:41.909Z,13.80
2017-05-15T00:32:09.636Z,13.70
2017-05-15T00:34:37.368Z,13.70
2017-05-15T00:37:05.133Z,13.60
2017-05-15T00:39:32.859Z,13.70
2017-05-15T00:42:00.595Z,13.70
2017-05-15T00:44:28.597Z,13.70
2017-05-15T00:46:56.319Z,13.80
2017-05-15T00:49:24.044Z,13.90
2017-05-15T00:51:52.851Z,13.80
2017-05-15T00:54:20.580Z,13.70
2017-05-15T00:56:49.044Z,13.50
2017-05-15T00:59:16.976Z,13.50
2017-05-15T01:01:44.708Z,13.50
2017-05-15T01:04:12.436Z,13.50
2017-05-15T01:06:40.197Z,13.40
2017-05-15T01:09:08.680Z,13.30
2017-05-15T01:11:36.400Z,13.30
2017-05-15T01:14:04.152Z,13.20
2017-05-15T01:16:31.896Z,13.20
2017-05-15T01:19:00.356Z,13.20
2017-05-15T01:21:29.396Z,13.20
2017-05-15T01:23:57.120Z,13.20
2017-05-15T01:26:24.847Z,13.20
2017-05-15T01:28:52.592Z,13.20
2017-05-15T01:31:20.311Z,13.20
2017-05-15T01:33:48.796Z,13.10
2017-05-15T01:36:17.312Z,13.00
2017-05-15T01:38:45.041Z,13.00
2017-05-15T01:41:13.564Z,13.00
2017-05-15T01:43:41.331Z,13.00
2017-05-15T01:46:09.114Z,13.00
2017-05-15T01:48:36.855Z,12.90
2017-05-15T01:51:05.699Z,12.90
2017-05-15T01:53:33.448Z,12.80
2017-05-15T01:56:01.200Z,12.70
2017-05-15T01:58:29.596Z,12.60
2017-05-15T02:00:57.344Z,12.60
2017-05-15T02:03:25.096Z,12.50
2017-05-15T02:05:52.929Z,12.50
2017-05-15T02:08:20.692Z,12.40
2017-05-15T02:10:49.200Z,12.30
2017-05-15T02:13:16.985Z,12.30
2017-05-15T02:15:44.732Z,12.30
2017-05-15T02:18:12.490Z,12.30
2017-05-15T02:20:40.279Z,12.30
2017-05-15T02:23:08.054Z,12.30
2017-05-15T02:25:35.787Z,12.40
2017-05-15T02:28:04.091Z,12.40
2017-05-15T02:30:31.825Z,12.50
2017-05-15T02:32:59.571Z,12.50
2017-05-15T02:35:27.596Z,12.60
2017-05-15T02:37:55.319Z,12.60
2017-05-15T02:40:23.044Z,12.50
2017-05-15T02:42:50.815Z,12.40
2017-05-15T02:45:18.565Z,12.40
2017-05-15T02:47:47.037Z,12.30
2017-05-15T02:50:15.524Z,12.20
2017-05-15T02:52:44.008Z,12.00
2017-05-15T02:55:12.524Z,12.00
2017-05-15T02:57:40.776Z,12.00
2017-05-15T03:00:08.524Z,12.10
2017-05-15T03:02:37.008Z,12.10
2017-05-15T03:05:05.211Z,12.20
2017-05-15T03:07:32.939Z,12.30
2017-05-15T03:10:01.404Z,12.30
2017-05-15T03:12:31.045Z,12.30
2017-05-15T03:14:58.784Z,12.30
2017-05-15T03:17:26.520Z,12.20
2017-05-15T03:19:55.428Z,12.20
2017-05-15T03:22:23.156Z,12.20
2017-05-15T03:24:50.888Z,12.20
2017-05-15T03:27:18.671Z,12.10
2017-05-15T03:29:46.425Z,12.10
2017-05-15T03:32:14.179Z,12.10
2017-05-15T03:34:42.426Z,12.10
2017-05-15T03:37:10.896Z,12.10
2017-05-15T03:39:38.636Z,12.00
2017-05-15T03:42:06.947Z,12.00
2017-05-15T03:44:34.696Z,12.00
2017-05-15T03:47:02.424Z,12.00
2017-05-15T03:49:30.624Z,12.00
2017-05-15T03:51:58.364Z,11.90
2017-05-15T03:54:26.097Z,12.00
2017-05-15T03:56:54.252Z,12.00
2017-05-15T03:59:22.734Z,12.10
2017-05-15T04:01:51.221Z,12.00
2017-05-15T04:04:20.074Z,12.00
2017-05-15T04:06:47.800Z,12.10
2017-05-15T04:09:15.529Z,12.20
2017-05-15T04:11:44.020Z,12.10
2017-05-15T04:14:12.484Z,12.10
2017-05-15T04:16:40.243Z,12.10
2017-05-15T04:19:08.989Z,12.00
2017-05-15T04:21:36.719Z,11.80
2017-05-15T04:24:05.192Z,11.70
2017-05-15T04:26:34.169Z,11.70
2017-05-15T04:29:01.906Z,11.60
2017-05-15T04:31:29.632Z,11.70
2017-05-15T04:33:57.870Z,11.80
2017-05-15T04:36:25.619Z,11.90
2017-05-15T04:38:53.371Z,12.10
2017-05-15T04:41:21.490Z,12.00
2017-05-15T04:43:49.958Z,11.90
2017-05-15T04:46:17.700Z,12.20
2017-05-15T04:48:45.887Z,12.30
2017-05-15T04:51:13.612Z,12.40
2017-05-15T04:53:41.405Z,12.40
2017-05-15T04:56:09.168Z,12.20
2017-05-15T04:58:36.918Z,12.20
2017-05-15T05:01:04.672Z,12.30
2017-05-15T05:03:32.823Z,12.40
2017-05-15T05:06:00.572Z,12.30
2017-05-15T05:08:28.305Z,12.40
2017-05-15T05:10:56.056Z,12.50
2017-05-15T05:13:23.809Z,12.50
2017-05-15T05:15:51.601Z,12.60
2017-05-15T05:18:19.664Z,12.60
2017-05-15T05:21:17.036Z,12.80
2017-05-15T05:23:56.872Z,12.80
2017-05-15T05:26:36.492Z,12.90
2017-05-15T05:29:16.199Z,13.00
2017-05-15T05:31:55.979Z,13.10
2017-05-15T05:34:50.800Z,12.90
2017-05-15T05:37:25.376Z,12.90
2017-05-15T05:40:12.805Z,12.90
2017-05-15T05:43:01.999Z,13.00
2017-05-15T05:45:30.188Z,13.10
2017-05-15T05:47:57.930Z,13.10
2017-05-15T05:50:25.675Z,13.10
2017-05-15T05:52:55.260Z,13.20
2017-05-15T05:55:46.792Z,13.00
2017-05-15T05:58:17.784Z,12.90
2017-05-15T06:00:57.288Z,12.80
2017-05-15T06:03:36.980Z,12.60
2017-05-15T06:06:17.180Z,12.50
2017-05-15T06:09:08.770Z,12.50
2017-05-15T06:11:48.320Z,12.50
2017-05-15T06:14:40.059Z,12.60
2017-05-15T06:17:19.592Z,12.80
2017-05-15T06:19:47.004Z,13.00
2017-05-15T06:22:26.524Z,13.00
2017-05-15T06:27:59.752Z,13.30
2017-05-15T06:30:27.724Z,13.30
2017-05-15T06:32:55.449Z,13.40
2017-05-15T06:35:23.175Z,13.60
2017-05-15T06:38:05.064Z,13.70
2017-05-15T06:40:45.331Z,13.70
2017-05-15T06:43:13.471Z,13.40
2017-05-15T06:45:42.164Z,13.20
2017-05-15T06:48:10.752Z,13.30
2017-05-15T06:50:39.441Z,13.50
2017-05-15T06:53:07.909Z,13.60
2017-05-15T06:55:35.645Z,13.30
2017-05-15T06:58:03.449Z,13.30
2017-05-15T07:00:31.953Z,13.70
2017-05-15T07:02:59.789Z,14.50
2017-05-15T07:05:28.481Z,14.90
2017-05-15T07:07:56.467Z,14.70
2017-05-15T07:10:24.204Z,14.60
2017-05-15T07:12:51.952Z,14.50
2017-05-15T07:15:20.048Z,14.70
2017-05-15T07:17:47.777Z,14.90
2017-05-15T07:20:15.532Z,14.10
2017-05-15T07:22:43.260Z,13.80
2017-05-15T07:25:11.009Z,14.00
2017-05-15T07:27:39.682Z,14.40
2017-05-15T07:30:08.156Z,14.90
2017-05-15T07:32:35.893Z,14.90
2017-05-15T07:35:03.653Z,14.60
2017-05-15T07:37:31.396Z,14.30
2017-05-15T07:39:59.118Z,14.20
2017-05-15T07:42:27.613Z,13.90
2017-05-15T07:44:55.337Z,13.70
2017-05-15T07:47:23.080Z,13.90
2017-05-15T07:49:51.201Z,14.20
2017-05-15T07:52:19.748Z,14.40
2017-05-15T07:54:47.478Z,14.30
2017-05-15T07:57:15.253Z,14.50
2017-05-15T07:59:43.012Z,14.90
2017-05-15T08:02:10.745Z,15.10
2017-05-15T08:04:39.408Z,15.20
2017-05-15T08:07:07.132Z,15.00
2017-05-15T08:09:34.852Z,14.60
2017-05-15T08:12:04.268Z,14.30
2017-05-15T08:14:31.983Z,14.60
2017-05-15T08:16:59.721Z,15.20
2017-05-15T08:19:28.043Z,14.90
2017-05-15T08:21:56.515Z,15.30
2017-05-15T08:24:24.239Z,15.60
2017-05-15T08:26:52.024Z,15.20
2017-05-15T08:29:19.763Z,15.10
2017-05-15T08:31:47.485Z,15.00
2017-05-15T08:34:16.369Z,15.40
2017-05-15T08:36:44.925Z,15.60
2017-05-15T08:39:12.649Z,15.80
2017-05-15T08:41:40.420Z,15.90
2017-05-15T08:44:08.151Z,15.70
2017-05-15T08:46:36.631Z,16.00
2017-05-15T08:49:06.835Z,16.50
2017-05-15T08:51:34.564Z,16.90
2017-05-15T08:54:02.280Z,17.10
2017-05-15T08:56:31.153Z,17.00
2017-05-15T08:58:58.872Z,16.40
2017-05-15T09:01:26.614Z,16.20
2017-05-15T09:03:54.561Z,15.90
2017-05-15T09:06:23.025Z,16.20
2017-05-15T09:08:50.745Z,16.50
2017-05-15T09:11:19.272Z,16.60
2017-05-15T09:13:46.990Z,17.10
2017-05-15T09:16:14.708Z,17.40
2017-05-15T09:18:42.455Z,17.00
2017-05-15T09:21:10.897Z,16.70
2017-05-15T09:23:38.629Z,16.50
2017-05-15T09:26:07.379Z,16.50
2017-05-15T09:28:35.097Z,16.80
2017-05-15T09:31:02.812Z,17.00
2017-05-15T09:33:30.563Z,17.20
2017-05-15T09:35:58.285Z,16.70
2017-05-15T09:38:26.019Z,16.50
2017-05-15T09:40:54.891Z,16.40
2017-05-15T09:43:22.613Z,16.30
2017-05-15T09:45:50.332Z,16.40
2017-05-15T09:48:18.813Z,17.00
2017-05-15T09:50:47.292Z,17.10
2017-05-15T09:53:15.752Z,16.90
2017-05-15T09:55:43.516Z,17.00
2017-05-15T09:58:11.265Z,17.30
2017-05-15T10:00:38.996Z,17.30
2017-05-15T10:03:07.124Z,17.50
2017-05-15T10:05:34.852Z,17.80
2017-05-15T10:08:02.571Z,17.80
2017-05-15T10:10:31.754Z,17.90
2017-05-15T10:12:59.477Z,17.90
2017-05-15T10:15:27.203Z,17.20
2017-05-15T10:17:55.360Z,17.30
2017-05-15T10:20:23.825Z,17.70
2017-05-15T10:22:52.200Z,17.90
2017-05-15T10:25:21.096Z,17.60
2017-05-15T10:27:48.942Z,17.50
2017-05-15T10:30:16.664Z,17.60
2017-05-15T10:32:44.525Z,17.70
2017-05-15T10:35:12.253Z,17.50
2017-05-15T10:37:39.973Z,17.80
2017-05-15T10:40:08.400Z,17.90
2017-05-15T10:42:36.122Z,17.70
2017-05-15T10:45:03.848Z,17.80
2017-05-15T10:47:32.341Z,18.10
2017-05-15T10:50:00.069Z,17.80
2017-05-15T10:52:27.806Z,17.50
2017-05-15T10:54:55.776Z,18.20
2017-05-15T10:57:23.497Z,18.30
2017-05-15T10:59:51.221Z,18.20
2017-05-15T11:02:19.615Z,18.30
2017-05-15T11:04:47.385Z,18.10
2017-05-15T11:07:15.861Z,18.50
2017-05-15T11:09:44.347Z,18.60
2017-05-15T11:12:12.860Z,18.60
2017-05-15T11:14:40.587Z,18.60
2017-05-15T11:17:09.356Z,18.50
2017-05-15T11:19:37.076Z,18.10
2017-05-15T11:22:04.956Z,18.30
2017-05-15T11:24:34.488Z,18.70
2017-05-15T11:27:02.208Z,18.80
2017-05-15T11:29:29.934Z,19.10
2017-05-15T11:31:58.445Z,18.60
2017-05-15T11:34:26.165Z,18.40
2017-05-15T11:36:53.894Z,18.50
2017-05-15T11:39:22.099Z,18.70
2017-05-15T11:41:49.816Z,19.10
2017-05-15T11:44:17.536Z,19.50
2017-05-15T11:46:46.516Z,19.80
2017-05-15T11:49:14.244Z,19.80
2017-05-15T11:51:41.968Z,19.50
2017-05-15T11:54:10.117Z,19.80
2017-05-15T11:56:37.836Z,19.90
2017-05-15T11:59:05.564Z,20.10
2017-05-15T12:01:33.811Z,20.50
2017-05-15T12:04:01.540Z,19.50
2017-05-15T12:06:29.261Z,19.10
2017-05-15T12:08:58.132Z,19.20
2017-05-15T12:11:25.861Z,19.70
2017-05-15T12:13:53.634Z,20.10
2017-05-15T12:16:22.380Z,20.50
2017-05-15T12:18:50.108Z,20.50
2017-05-15T12:21:17.837Z,20.70
2017-05-15T12:23:45.600Z,20.40
2017-05-15T12:26:13.324Z,20.40
2017-05-15T12:28:41.809Z,21.00
2017-05-15T12:31:10.259Z,21.10
2017-05-15T12:33:37.982Z,21.00
2017-05-15T12:36:05.704Z,20.60
2017-05-15T12:38:34.373Z,20.20
2017-05-15T12:41:02.120Z,19.90
2017-05-15T12:43:29.840Z,19.80
2017-05-15T12:45:57.942Z,20.00
2017-05-15T12:48:25.660Z,20.10
2017-05-15T12:50:53.404Z,20.60
2017-05-15T12:53:21.360Z,21.20
2017-05-15T12:55:49.080Z,21.10
2017-05-15T12:58:16.795Z,20.80
2017-05-15T13:00:44.574Z,20.60
2017-05-15T13:03:13.065Z,20.50
2017-05-15T13:05:40.792Z,20.40
2017-05-15T13:08:09.689Z,20.20
2017-05-15T13:10:37.414Z,20.30
2017-05-15T13:13:05.135Z,20.80
2017-05-15T13:15:33.640Z,21.30
2017-05-15T13:18:01.366Z,21.60
2017-05-15T13:20:29.089Z,21.70
2017-05-15T13:22:56.836Z,23.60
2017-05-15T13:25:24.571Z,25.20
2017-05-15T13:27:52.287Z,23.30
2017-05-15T13:30:20.027Z,22.00
2017-05-15T13:32:47.746Z,24.90
2017-05-15T13:35:15.480Z,25.70
2017-05-15T13:37:43.810Z,24.00
2017-05-15T13:40:11.527Z,27.40
2017-05-15T13:42:39.243Z,26.20
2017-05-15T13:45:07.151Z,27.20
2017-05-15T13:47:34.863Z,29.80
2017-05-15T13:50:02.587Z,32.00
2017-05-15T13:52:32.103Z,29.00
2017-05-15T13:54:59.824Z,27.60
2017-05-15T13:57:27.547Z,29.70
2017-05-15T13:59:55.497Z,27.00
2017-05-15T14:02:23.220Z,29.30
2017-05-15T14:04:50.945Z,30.80
2017-05-15T14:07:18.685Z,33.90
2017-05-15T14:09:46.424Z,36.20
2017-05-15T14:12:14.157Z,35.10
2017-05-15T14:14:42.184Z,33.00
2017-05-15T14:17:09.908Z,33.10
2017-05-15T14:19:37.684Z,35.50
2017-05-15T14:22:05.571Z,36.10
2017-05-15T14:24:33.288Z,35.40
2017-05-15T14:27:01.008Z,34.30
2017-05-15T14:29:30.201Z,32.40
2017-05-15T14:31:57.922Z,32.40
2017-05-15T14:34:25.645Z,32.30
2017-05-15T14:36:53.365Z,30.80
2017-05-15T14:39:21.091Z,32.70
2017-05-15T14:41:48.816Z,33.40
2017-05-15T14:44:16.549Z,33.20
2017-05-15T14:46:44.648Z,33.80
2017-05-15T14:49:12.372Z,30.40
2017-05-15T14:51:40.097Z,31.10
2017-05-15T14:54:09.160Z,33.80
2017-05-15T14:56:36.876Z,31.10
2017-05-15T14:59:04.591Z,34.30
2017-05-15T15:01:32.455Z,36.80
2017-05-15T15:04:00.167Z,38.10
2017-05-15T15:06:27.888Z,37.60
2017-05-15T15:08:55.627Z,38.00
2017-05-15T15:11:23.364Z,38.70
2017-05-15T15:13:51.083Z,39.30
2017-05-15T15:16:19.185Z,39.00
2017-05-15T15:18:46.903Z,35.60
2017-05-15T15:21:14.620Z,33.30
2017-05-15T15:23:42.737Z,31.20
2017-05-15T15:26:10.460Z,32.30
2017-05-15T15:28:38.180Z,29.70
2017-05-15T15:31:07.155Z,26.30
2017-05-15T15:33:34.885Z,24.80
2017-05-15T15:36:02.636Z,28.40
2017-05-15T15:38:30.548Z,31.60
2017-05-15T15:40:58.264Z,32.80
2017-05-15T15:43:25.994Z,33.70
2017-05-15T15:45:54.477Z,33.20
2017-05-15T15:48:22.204Z,34.30
2017-05-15T15:50:49.950Z,35.30
2017-05-15T15:53:17.720Z,32.20
2017-05-15T15:55:45.452Z,30.60
2017-05-15T15:58:14.729Z,31.10
2017-05-15T16:00:43.192Z,30.50
2017-05-15T16:03:10.916Z,29.60
2017-05-15T16:05:39.128Z,29.50
2017-05-15T16:08:06.844Z,30.60
2017-05-15T16:10:34.567Z,30.70
2017-05-15T16:13:03.625Z,29.70
2017-05-15T16:15:31.344Z,28.70
2017-05-15T16:17:59.071Z,27.90
2017-05-15T16:20:27.679Z,26.60
2017-05-15T16:22:56.143Z,24.90
2017-05-15T16:25:24.603Z,24.90
2017-05-15T16:27:52.588Z,25.80
2017-05-15T16:30:20.306Z,26.80
2017-05-15T16:32:48.773Z,27.00
2017-05-15T16:35:16.883Z,27.00
2017-05-15T16:37:44.601Z,26.50
2017-05-15T16:40:12.325Z,25.50
2017-05-15T16:42:40.091Z,24.70
2017-05-15T16:45:07.821Z,23.80
2017-05-15T16:47:35.701Z,23.20
2017-05-15T16:50:03.752Z,23.10
2017-05-15T16:52:31.492Z,22.90
2017-05-15T16:54:59.219Z,22.80
2017-05-15T16:57:26.970Z,23.10
2017-05-15T16:59:54.721Z,23.40
2017-05-15T17:02:22.457Z,23.00
2017-05-15T17:04:50.687Z,22.90
2017-05-15T17:07:18.417Z,22.40
2017-05-15T17:09:46.147Z,22.00
2017-05-15T17:12:14.371Z,21.60
2017-05-15T17:14:42.097Z,21.40
2017-05-15T17:17:09.824Z,21.10
2017-05-15T17:19:38.153Z,20.40
2017-05-15T17:22:05.872Z,20.20
2017-05-15T17:24:33.589Z,20.20
2017-05-15T17:27:01.805Z,20.30
2017-05-15T17:29:30.267Z,20.40
2017-05-15T17:31:57.987Z,20.20
2017-05-15T17:34:26.812Z,19.80
2017-05-15T17:36:54.536Z,19.70
2017-05-15T17:39:22.251Z,19.70
2017-05-15T17:41:50.208Z,19.60
2017-05-15T17:44:17.928Z,19.40
2017-05-15T17:46:45.654Z,19.20
2017-05-15T17:49:14.136Z,19.10
2017-05-15T17:51:42.600Z,19.10
2017-05-15T17:54:10.338Z,19.10
2017-05-15T17:56:38.088Z,19.00
2017-05-15T17:59:05.856Z,18.90
2017-05-15T18:01:33.587Z,18.90
2017-05-15T18:04:01.354Z,18.80
2017-05-15T18:06:29.080Z,18.70
2017-05-15T18:08:56.804Z,18.60
2017-05-15T18:11:24.572Z,18.40
2017-05-15T18:13:52.297Z,18.40
2017-05-15T18:16:20.030Z,18.40
2017-05-15T18:18:48.304Z,18.30
2017-05-15T18:21:16.026Z,18.30
2017-05-15T18:23:43.748Z,18.20
2017-05-15T18:26:11.804Z,18.10
2017-05-15T18:28:39.540Z,18.10
2017-05-15T18:31:07.268Z,18.00
2017-05-15T18:33:35.011Z,18.00
2017-05-15T18:36:04.389Z,17.80
2017-05-15T18:38:32.112Z,17.70
2017-05-15T18:40:59.885Z,17.50
2017-05-15T18:43:27.629Z,17.30
2017-05-15T18:45:55.352Z,17.30
2017-05-15T18:48:24.138Z,17.20
2017-05-15T18:50:51.880Z,17.10
2017-05-15T18:53:19.604Z,17.00
2017-05-15T18:55:47.380Z,16.90
2017-05-15T18:58:15.102Z,16.90
2017-05-15T19:00:42.849Z,17.00
2017-05-15T19:03:10.620Z,17.10
2017-05-15T19:05:38.344Z,17.10
2017-05-15T19:08:06.064Z,17.10
2017-05-15T19:10:34.933Z,17.00
2017-05-15T19:13:02.660Z,17.00
2017-05-15T19:15:30.377Z,17.00
2017-05-15T19:17:58.129Z,16.90
2017-05-15T19:20:25.849Z,16.90
2017-05-15T19:22:53.574Z,16.70
2017-05-15T19:25:21.325Z,16.60
2017-05-15T19:27:49.813Z,16.40
2017-05-15T19:30:18.277Z,16.30
2017-05-15T19:32:46.445Z,16.20
2017-05-15T19:35:14.191Z,16.10
2017-05-15T19:37:42.372Z,15.90
2017-05-15T19:40:10.756Z,15.90
2017-05-15T19:42:38.476Z,15.80
2017-05-15T19:45:06.197Z,15.80
2017-05-15T19:47:35.078Z,15.70
2017-05-15T19:50:02.830Z,15.90
2017-05-15T19:52:30.552Z,16.00
2017-05-15T19:54:59.079Z,16.00
2017-05-15T19:57:26.813Z,16.00
2017-05-15T19:59:54.541Z,15.90
2017-05-15T20:02:22.684Z,15.70
2017-05-15T20:04:50.405Z,15.70
2017-05-15T20:07:18.189Z,15.80
2017-05-15T20:09:47.102Z,15.90
2017-05-15T20:12:14.823Z,15.90
2017-05-15T20:14:42.562Z,15.80
2017-05-15T20:17:10.332Z,15.70
2017-05-15T20:19:38.067Z,15.90
2017-05-15T20:22:05.789Z,15.90
2017-05-15T20:24:33.535Z,15.90
2017-05-15T20:27:01.255Z,15.70
2017-05-15T20:29:29.732Z,15.50
2017-05-15T20:31:58.213Z,15.50
2017-05-15T20:34:26.679Z,15.50
2017-05-15T20:36:54.408Z,15.40
2017-05-15T20:39:22.300Z,15.40
2017-05-15T20:41:50.024Z,15.40
2017-05-15T20:44:17.752Z,15.40
2017-05-15T20:46:46.218Z,15.30
2017-05-15T20:49:14.349Z,15.30
2017-05-15T20:51:42.068Z,15.20
2017-05-15T20:54:10.536Z,15.20
2017-05-15T20:56:38.262Z,15.20
2017-05-15T20:59:06.005Z,15.20
2017-05-15T21:01:33.720Z,15.10
2017-05-15T21:04:01.442Z,15.20
2017-05-15T21:06:29.656Z,15.20
2017-05-15T21:08:57.530Z,15.10
2017-05-15T21:11:26.130Z,15.10
2017-05-15T21:13:54.654Z,15.10
2017-05-15T21:16:22.396Z,15.00
2017-05-15T21:18:51.447Z,15.00
2017-05-15T21:21:19.175Z,15.00
2017-05-15T21:23:46.892Z,14.90
2017-05-15T21:26:15.356Z,15.00
2017-05-15T21:28:43.096Z,15.00
2017-05-15T21:31:11.203Z,14.90
2017-05-15T21:33:39.671Z,14.80
2017-05-15T21:36:07.395Z,14.80
2017-05-15T21:38:35.128Z,14.70
2017-05-15T21:41:03.272Z,14.70
2017-05-15T21:43:31.204Z,14.60
2017-05-15T21:45:58.923Z,14.60
2017-05-15T21:48:27.389Z,14.50
2017-05-15T21:50:55.114Z,14.40
2017-05-15T21:53:22.873Z,14.40
2017-05-15T21:55:50.648Z,14.40
2017-05-15T21:58:18.377Z,14.40
2017-05-15T22:00:46.152Z,14.40
2017-05-15T22:03:13.869Z,14.40
2017-05-15T22:05:42.337Z,14.40
2017-05-15T22:08:10.112Z,14.40
2017-05-15T22:10:37.837Z,14.30
2017-05-15T22:13:05.560Z,14.30
2017-05-15T22:15:33.292Z,14.40
2017-05-15T22:18:01.260Z,14.40
2017-05-15T22:20:29.035Z,14.40
2017-05-15T22:22:57.506Z,14.40
2017-05-15T22:25:25.234Z,14.40
2017-05-15T22:27:52.970Z,14.50
2017-05-15T22:30:20.701Z,14.50
2017-05-15T22:32:48.428Z,14.50
2017-05-15T22:35:16.532Z,14.50
2017-05-15T22:37:44.256Z,14.50
2017-05-15T22:40:11.991Z,14.40
2017-05-15T22:42:39.716Z,14.50
2017-05-15T22:45:07.584Z,14.50
2017-05-15T22:47:36.376Z,14.40
2017-05-15T22:50:04.091Z,14.40
2017-05-15T22:52:31.815Z,14.50
2017-05-15T22:55:00.276Z,14.50
2017-05-15T22:57:28.064Z,14.50
2017-05-15T22:59:55.796Z,14.50
2017-05-15T23:02:23.517Z,14.40
2017-05-15T23:04:51.649Z,14.40
2017-05-15T23:07:20.125Z,14.40
2017-05-15T23:09:47.951Z,14.40
2017-05-15T23:12:15.673Z,14.30
2017-05-15T23:14:44.140Z,14.30
2017-05-15T23:17:12.602Z,14.30
2017-05-15T23:19:40.328Z,14.40
2017-05-15T23:22:08.444Z,14.30
2017-05-15T23:24:36.163Z,14.30
2017-05-15T23:27:04.000Z,14.30
2017-05-15T23:29:31.721Z,14.30
2017-05-15T23:31:59.444Z,14.30
2017-05-15T23:34:27.601Z,14.30
2017-05-15T23:36:55.321Z,14.30
2017-05-15T23:39:23.047Z,14.30
2017-05-15T23:41:50.804Z,14.30
2017-05-15T23:44:18.636Z,14.20
2017-05-15T23:46:48.021Z,14.20
2017-05-15T23:49:15.751Z,14.20
2017-05-15T23:51:43.482Z,14.20
2017-05-15T23:54:11.203Z,14.20
2017-05-15T23:56:38.931Z,14.20
2017-05-15T23:59:07.066Z,14.10
